Aviation Digital Data Service (ADDS)

Output produced by METARs form (2113 UTC 16 February 2019)
found at http://www.aviationweather.gov/metar/data/
 
Forecast for: ZYTL (DALIAN/DAIREN/LU, CN)
Text: TAF ZYTL 161510Z 1618/1718 27004MPS CAVOK TX02/1706Z TNM05/21Z
Forecast period: 1800 UTC 16 February 2019 to 1800 UTC 17 February 2019
Forecast type: FROM: standard forecast or significant change
Winds: from the W (270 degrees) at 9 MPH (8 knots; 4.1 m/s)
Visibility: 6 or more miles 10+ km)
Ceiling: unknown
Clouds: missing
Weather: no significant weather forecast for this period